sensor_id;sensor_type;location;lat;lon;timestamp;temperature;humidity
14850;DHT22;7517;48.400;11.770;2022-10-16T00:01:50;18.30;78.80
14850;DHT22;7517;48.400;11.770;2022-10-16T00:04:20;18.20;78.80
14850;DHT22;7517;48.400;11.770;2022-10-16T00:06:47;18.20;78.70
14850;DHT22;7517;48.400;11.770;2022-10-16T00:09:20;18.20;78.70
14850;DHT22;7517;48.400;11.770;2022-10-16T00:11:47;18.10;78.70
14850;DHT22;7517;48.400;11.770;2022-10-16T00:14:15;18.00;78.70
14850;DHT22;7517;48.400;11.770;2022-10-16T00:16:45;18.00;78.70
14850;DHT22;7517;48.400;11.770;2022-10-16T00:19:16;18.00;78.80
14850;DHT22;7517;48.400;11.770;2022-10-16T00:21:43;17.90;78.90
14850;DHT22;7517;48.400;11.770;2022-10-16T00:24:13;17.90;79.10
14850;DHT22;7517;48.400;11.770;2022-10-16T00:26:40;17.90;79.20
14850;DHT22;7517;48.400;11.770;2022-10-16T00:29:09;17.80;79.10
14850;DHT22;7517;48.400;11.770;2022-10-16T00:31:36;17.80;79.80
14850;DHT22;7517;48.400;11.770;2022-10-16T00:34:04;17.80;79.00
14850;DHT22;7517;48.400;11.770;2022-10-16T00:36:33;17.70;78.90
14850;DHT22;7517;48.400;11.770;2022-10-16T00:39:02;17.70;79.10
14850;DHT22;7517;48.400;11.770;2022-10-16T00:41:30;17.70;79.20
14850;DHT22;7517;48.400;11.770;2022-10-16T00:43:59;17.70;79.20
14850;DHT22;7517;48.400;11.770;2022-10-16T00:46:35;17.60;79.10
14850;DHT22;7517;48.400;11.770;2022-10-16T00:49:08;17.60;79.90
14850;DHT22;7517;48.400;11.770;2022-10-16T00:51:45;17.60;79.30
14850;DHT22;7517;48.400;11.770;2022-10-16T00:54:20;17.60;79.50
14850;DHT22;7517;48.400;11.770;2022-10-16T00:56:49;17.60;79.60
14850;DHT22;7517;48.400;11.770;2022-10-16T00:59:22;17.50;79.50
14850;DHT22;7517;48.400;11.770;2022-10-16T01:01:54;17.50;79.50
14850;DHT22;7517;48.400;11.770;2022-10-16T01:04:23;17.50;79.40
14850;DHT22;7517;48.400;11.770;2022-10-16T01:06:59;17.50;79.40
14850;DHT22;7517;48.400;11.770;2022-10-16T01:09:44;17.50;79.40
14850;DHT22;7517;48.400;11.770;2022-10-16T01:12:33;17.50;79.70
14850;DHT22;7517;48.400;11.770;2022-10-16T01:15:24;17.40;79.80
14850;DHT22;7517;48.400;11.770;2022-10-16T01:18:03;17.40;79.90
14850;DHT22;7517;48.400;11.770;2022-10-16T01:20:47;17.40;80.00
14850;DHT22;7517;48.400;11.770;2022-10-16T01:23:46;17.40;80.10
14850;DHT22;7517;48.400;11.770;2022-10-16T01:26:37;17.40;80.10
14850;DHT22;7517;48.400;11.770;2022-10-16T01:29:25;17.40;80.10
14850;DHT22;7517;48.400;11.770;2022-10-16T01:31:59;17.40;80.10
14850;DHT22;7517;48.400;11.770;2022-10-16T01:34:47;17.40;80.10
14850;DHT22;7517;48.400;11.770;2022-10-16T01:37:36;17.40;80.10
14850;DHT22;7517;48.400;11.770;2022-10-16T01:40:15;17.40;80.10
14850;DHT22;7517;48.400;11.770;2022-10-16T01:42:54;17.30;80.00
14850;DHT22;7517;48.400;11.770;2022-10-16T01:45:28;17.30;79.90
14850;DHT22;7517;48.400;11.770;2022-10-16T01:48:00;17.30;80.00
14850;DHT22;7517;48.400;11.770;2022-10-16T01:50:38;17.30;80.00
14850;DHT22;7517;48.400;11.770;2022-10-16T01:53:11;17.30;80.20
14850;DHT22;7517;48.400;11.770;2022-10-16T01:55:48;17.30;80.20
14850;DHT22;7517;48.400;11.770;2022-10-16T01:58:23;17.30;80.10
14850;DHT22;7517;48.400;11.770;2022-10-16T02:00:57;17.30;80.20
14850;DHT22;7517;48.400;11.770;2022-10-16T02:03:28;17.30;80.20
14850;DHT22;7517;48.400;11.770;2022-10-16T02:05:58;17.30;80.20
14850;DHT22;7517;48.400;11.770;2022-10-16T02:08:28;17.30;80.30
14850;DHT22;7517;48.400;11.770;2022-10-16T02:10:58;17.30;80.40
14850;DHT22;7517;48.400;11.770;2022-10-16T02:13:31;17.30;80.50
14850;DHT22;7517;48.400;11.770;2022-10-16T02:16:09;17.30;80.70
14850;DHT22;7517;48.400;11.770;2022-10-16T02:18:39;17.30;80.90
14850;DHT22;7517;48.400;11.770;2022-10-16T02:21:19;17.30;81.10
14850;DHT22;7517;48.400;11.770;2022-10-16T02:23:57;17.30;81.20
14850;DHT22;7517;48.400;11.770;2022-10-16T02:26:42;17.30;81.10
14850;DHT22;7517;48.400;11.770;2022-10-16T02:29:18;17.30;80.90
14850;DHT22;7517;48.400;11.770;2022-10-16T02:31:54;17.30;80.80
14850;DHT22;7517;48.400;11.770;2022-10-16T02:34:25;17.30;80.70
14850;DHT22;7517;48.400;11.770;2022-10-16T02:36:58;17.30;80.60
14850;DHT22;7517;48.400;11.770;2022-10-16T02:39:28;17.30;80.50
14850;DHT22;7517;48.400;11.770;2022-10-16T02:41:59;17.30;80.40
14850;DHT22;7517;48.400;11.770;2022-10-16T02:44:35;17.30;80.40
14850;DHT22;7517;48.400;11.770;2022-10-16T02:47:03;17.30;80.30
14850;DHT22;7517;48.400;11.770;2022-10-16T02:49:32;17.20;80.10
14850;DHT22;7517;48.400;11.770;2022-10-16T02:51:59;17.20;80.00
14850;DHT22;7517;48.400;11.770;2022-10-16T02:54:29;17.20;79.90
14850;DHT22;7517;48.400;11.770;2022-10-16T02:56:56;17.20;79.70
14850;DHT22;7517;48.400;11.770;2022-10-16T02:59:23;17.20;79.60
14850;DHT22;7517;48.400;11.770;2022-10-16T03:01:58;17.10;79.60
14850;DHT22;7517;48.400;11.770;2022-10-16T03:04:27;17.10;79.70
14850;DHT22;7517;48.400;11.770;2022-10-16T03:06:59;17.10;79.70
14850;DHT22;7517;48.400;11.770;2022-10-16T03:09:28;17.10;79.70
14850;DHT22;7517;48.400;11.770;2022-10-16T03:11:56;17.00;79.90
14850;DHT22;7517;48.400;11.770;2022-10-16T03:14:26;17.00;80.00
14850;DHT22;7517;48.400;11.770;2022-10-16T03:16:56;17.00;80.00
14850;DHT22;7517;48.400;11.770;2022-10-16T03:19:29;17.00;79.90
14850;DHT22;7517;48.400;11.770;2022-10-16T03:22:01;17.00;80.00
14850;DHT22;7517;48.400;11.770;2022-10-16T03:24:33;16.90;79.90
14850;DHT22;7517;48.400;11.770;2022-10-16T03:27:00;16.90;79.80
14850;DHT22;7517;48.400;11.770;2022-10-16T03:29:35;16.90;79.70
14850;DHT22;7517;48.400;11.770;2022-10-16T03:32:03;16.90;79.70
14850;DHT22;7517;48.400;11.770;2022-10-16T03:34:32;16.90;79.70
14850;DHT22;7517;48.400;11.770;2022-10-16T03:37:02;16.90;79.70
14850;DHT22;7517;48.400;11.770;2022-10-16T03:39:29;16.80;79.60
14850;DHT22;7517;48.400;11.770;2022-10-16T03:41:57;16.80;79.60
14850;DHT22;7517;48.400;11.770;2022-10-16T03:44:24;16.80;79.70
14850;DHT22;7517;48.400;11.770;2022-10-16T03:46:51;16.80;79.70
14850;DHT22;7517;48.400;11.770;2022-10-16T03:49:18;16.70;79.90
14850;DHT22;7517;48.400;11.770;2022-10-16T03:51:46;16.70;80.00
14850;DHT22;7517;48.400;11.770;2022-10-16T03:54:13;16.70;80.10
14850;DHT22;7517;48.400;11.770;2022-10-16T03:56:41;16.70;80.20
14850;DHT22;7517;48.400;11.770;2022-10-16T03:59:11;16.70;80.20
14850;DHT22;7517;48.400;11.770;2022-10-16T04:01:40;16.70;80.30
14850;DHT22;7517;48.400;11.770;2022-10-16T04:04:08;16.70;80.40
14850;DHT22;7517;48.400;11.770;2022-10-16T04:06:43;16.70;80.40
14850;DHT22;7517;48.400;11.770;2022-10-16T04:09:16;16.70;80.50
14850;DHT22;7517;48.400;11.770;2022-10-16T04:11:48;16.70;80.50
14850;DHT22;7517;48.400;11.770;2022-10-16T04:14:16;16.70;80.60
14850;DHT22;7517;48.400;11.770;2022-10-16T04:16:44;16.70;80.70
14850;DHT22;7517;48.400;11.770;2022-10-16T04:19:11;16.70;80.90
14850;DHT22;7517;48.400;11.770;2022-10-16T04:21:43;16.70;81.00
14850;DHT22;7517;48.400;11.770;2022-10-16T04:24:11;16.80;81.20
14850;DHT22;7517;48.400;11.770;2022-10-16T04:26:40;16.80;81.30
14850;DHT22;7517;48.400;11.770;2022-10-16T04:29:09;16.80;81.40
14850;DHT22;7517;48.400;11.770;2022-10-16T04:31:36;16.80;81.50
14850;DHT22;7517;48.400;11.770;2022-10-16T04:34:03;16.80;81.40
14850;DHT22;7517;48.400;11.770;2022-10-16T04:36:33;16.90;81.50
14850;DHT22;7517;48.400;11.770;2022-10-16T04:39:00;16.90;81.50
14850;DHT22;7517;48.400;11.770;2022-10-16T04:41:27;16.90;81.50
14850;DHT22;7517;48.400;11.770;2022-10-16T04:43:58;16.90;81.50
14850;DHT22;7517;48.400;11.770;2022-10-16T04:46:25;17.00;81.70
14850;DHT22;7517;48.400;11.770;2022-10-16T04:48:54;17.00;81.60
14850;DHT22;7517;48.400;11.770;2022-10-16T04:51:26;17.00;82.30
14850;DHT22;7517;48.400;11.770;2022-10-16T04:53:55;17.00;81.70
14850;DHT22;7517;48.400;11.770;2022-10-16T04:56:27;17.00;81.70
14850;DHT22;7517;48.400;11.770;2022-10-16T04:58:54;17.00;81.70
14850;DHT22;7517;48.400;11.770;2022-10-16T05:01:23;17.10;81.90
14850;DHT22;7517;48.400;11.770;2022-10-16T05:03:52;17.10;81.90
14850;DHT22;7517;48.400;11.770;2022-10-16T05:06:19;17.10;81.80
14850;DHT22;7517;48.400;11.770;2022-10-16T05:08:46;17.10;81.80
14850;DHT22;7517;48.400;11.770;2022-10-16T05:11:19;17.10;81.80
14850;DHT22;7517;48.400;11.770;2022-10-16T05:13:49;17.10;81.80
14850;DHT22;7517;48.400;11.770;2022-10-16T05:16:18;17.10;81.80
14850;DHT22;7517;48.400;11.770;2022-10-16T05:18:56;17.20;81.80
14850;DHT22;7517;48.400;11.770;2022-10-16T05:21:35;17.20;81.70
14850;DHT22;7517;48.400;11.770;2022-10-16T05:24:07;17.20;81.70
14850;DHT22;7517;48.400;11.770;2022-10-16T05:26:37;17.20;81.70
14850;DHT22;7517;48.400;11.770;2022-10-16T05:29:04;17.20;81.70
14850;DHT22;7517;48.400;11.770;2022-10-16T05:31:35;17.20;81.80
14850;DHT22;7517;48.400;11.770;2022-10-16T05:34:04;17.20;81.90
14850;DHT22;7517;48.400;11.770;2022-10-16T05:36:40;17.20;81.90
14850;DHT22;7517;48.400;11.770;2022-10-16T05:39:19;17.20;82.00
14850;DHT22;7517;48.400;11.770;2022-10-16T05:41:50;17.30;82.00
14850;DHT22;7517;48.400;11.770;2022-10-16T05:44:24;17.30;81.80
14850;DHT22;7517;48.400;11.770;2022-10-16T05:47:01;17.30;81.60
14850;DHT22;7517;48.400;11.770;2022-10-16T05:49:41;17.30;81.40
14850;DHT22;7517;48.400;11.770;2022-10-16T05:52:18;17.30;81.40
14850;DHT22;7517;48.400;11.770;2022-10-16T05:54:48;17.30;81.40
14850;DHT22;7517;48.400;11.770;2022-10-16T05:57:27;17.30;81.30
14850;DHT22;7517;48.400;11.770;2022-10-16T05:59:54;17.30;81.30
14850;DHT22;7517;48.400;11.770;2022-10-16T06:02:27;17.30;81.20
14850;DHT22;7517;48.400;11.770;2022-10-16T06:05:00;17.30;81.20
14850;DHT22;7517;48.400;11.770;2022-10-16T06:07:34;17.30;81.00
14850;DHT22;7517;48.400;11.770;2022-10-16T06:10:11;17.20;80.90
14850;DHT22;7517;48.400;11.770;2022-10-16T06:12:50;17.20;80.80
14850;DHT22;7517;48.400;11.770;2022-10-16T06:15:18;17.20;80.80
14850;DHT22;7517;48.400;11.770;2022-10-16T06:17:47;17.20;80.80
14850;DHT22;7517;48.400;11.770;2022-10-16T06:20:14;17.20;80.80
14850;DHT22;7517;48.400;11.770;2022-10-16T06:22:41;17.20;80.90
14850;DHT22;7517;48.400;11.770;2022-10-16T06:25:18;17.20;80.90
14850;DHT22;7517;48.400;11.770;2022-10-16T06:27:50;17.20;81.00
14850;DHT22;7517;48.400;11.770;2022-10-16T06:30:18;17.20;81.00
14850;DHT22;7517;48.400;11.770;2022-10-16T06:32:58;17.20;81.00
14850;DHT22;7517;48.400;11.770;2022-10-16T06:35:28;17.20;80.80
14850;DHT22;7517;48.400;11.770;2022-10-16T06:38:00;17.10;80.70
14850;DHT22;7517;48.400;11.770;2022-10-16T06:40:30;17.10;80.60
14850;DHT22;7517;48.400;11.770;2022-10-16T06:43:04;17.10;80.60
14850;DHT22;7517;48.400;11.770;2022-10-16T06:45:34;17.10;80.60
14850;DHT22;7517;48.400;11.770;2022-10-16T06:48:03;17.10;80.60
14850;DHT22;7517;48.400;11.770;2022-10-16T06:50:32;17.10;80.70
14850;DHT22;7517;48.400;11.770;2022-10-16T06:53:03;17.10;80.70
14850;DHT22;7517;48.400;11.770;2022-10-16T06:55:32;17.10;80.80
14850;DHT22;7517;48.400;11.770;2022-10-16T06:57:59;17.10;81.00
14850;DHT22;7517;48.400;11.770;2022-10-16T07:00:32;17.10;81.30
14850;DHT22;7517;48.400;11.770;2022-10-16T07:02:59;17.10;81.60
14850;DHT22;7517;48.400;11.770;2022-10-16T07:05:36;17.10;82.00
14850;DHT22;7517;48.400;11.770;2022-10-16T07:08:07;17.20;82.30
14850;DHT22;7517;48.400;11.770;2022-10-16T07:10:35;17.20;82.50
14850;DHT22;7517;48.400;11.770;2022-10-16T07:13:05;17.20;82.70
14850;DHT22;7517;48.400;11.770;2022-10-16T07:15:33;17.30;82.90
14850;DHT22;7517;48.400;11.770;2022-10-16T07:18:00;17.30;83.00
14850;DHT22;7517;48.400;11.770;2022-10-16T07:20:32;17.40;83.00
14850;DHT22;7517;48.400;11.770;2022-10-16T07:23:02;17.40;82.80
14850;DHT22;7517;48.400;11.770;2022-10-16T07:25:29;17.50;82.80
14850;DHT22;7517;48.400;11.770;2022-10-16T07:27:59;17.50;82.80
14850;DHT22;7517;48.400;11.770;2022-10-16T07:30:28;17.50;82.70
14850;DHT22;7517;48.400;11.770;2022-10-16T07:33:01;17.60;82.70
14850;DHT22;7517;48.400;11.770;2022-10-16T07:35:31;17.60;82.60
14850;DHT22;7517;48.400;11.770;2022-10-16T07:38:01;17.70;82.80
14850;DHT22;7517;48.400;11.770;2022-10-16T07:40:29;17.70;82.80
14850;DHT22;7517;48.400;11.770;2022-10-16T07:42:56;17.70;82.90
14850;DHT22;7517;48.400;11.770;2022-10-16T07:45:23;17.80;83.10
14850;DHT22;7517;48.400;11.770;2022-10-16T07:47:50;17.80;83.20
14850;DHT22;7517;48.400;11.770;2022-10-16T07:50:18;17.90;83.20
14850;DHT22;7517;48.400;11.770;2022-10-16T07:52:46;17.90;83.20
14850;DHT22;7517;48.400;11.770;2022-10-16T07:55:16;18.00;83.00
14850;DHT22;7517;48.400;11.770;2022-10-16T07:57:44;18.10;83.00
14850;DHT22;7517;48.400;11.770;2022-10-16T08:00:12;18.20;82.90
14850;DHT22;7517;48.400;11.770;2022-10-16T08:02:42;18.30;83.60
14850;DHT22;7517;48.400;11.770;2022-10-16T08:05:10;18.40;83.20
14850;DHT22;7517;48.400;11.770;2022-10-16T08:07:49;18.40;82.90
14850;DHT22;7517;48.400;11.770;2022-10-16T08:10:28;18.60;82.40
14850;DHT22;7517;48.400;11.770;2022-10-16T08:13:02;18.70;82.20
14850;DHT22;7517;48.400;11.770;2022-10-16T08:15:32;18.80;82.50
14850;DHT22;7517;48.400;11.770;2022-10-16T08:18:04;18.90;82.50
14850;DHT22;7517;48.400;11.770;2022-10-16T08:20:34;19.10;82.50
14850;DHT22;7517;48.400;11.770;2022-10-16T08:23:03;19.20;81.90
14850;DHT22;7517;48.400;11.770;2022-10-16T08:25:30;19.30;81.50
14850;DHT22;7517;48.400;11.770;2022-10-16T08:27:58;19.40;82.00
14850;DHT22;7517;48.400;11.770;2022-10-16T08:30:25;19.60;81.40
14850;DHT22;7517;48.400;11.770;2022-10-16T08:32:52;19.70;81.40
14850;DHT22;7517;48.400;11.770;2022-10-16T08:35:19;19.80;81.00
14850;DHT22;7517;48.400;11.770;2022-10-16T08:37:47;20.00;80.90
14850;DHT22;7517;48.400;11.770;2022-10-16T08:40:30;20.10;80.50
14850;DHT22;7517;48.400;11.770;2022-10-16T08:43:19;20.20;79.70
14850;DHT22;7517;48.400;11.770;2022-10-16T08:46:13;20.30;79.90
14850;DHT22;7517;48.400;11.770;2022-10-16T08:48:58;20.40;79.50
14850;DHT22;7517;48.400;11.770;2022-10-16T08:51:36;20.60;79.80
14850;DHT22;7517;48.400;11.770;2022-10-16T08:54:05;20.70;79.90
14850;DHT22;7517;48.400;11.770;2022-10-16T08:56:47;20.80;79.90
14850;DHT22;7517;48.400;11.770;2022-10-16T08:59:16;21.00;78.80
14850;DHT22;7517;48.400;11.770;2022-10-16T09:01:46;21.10;78.10
14850;DHT22;7517;48.400;11.770;2022-10-16T09:04:43;21.20;77.90
14850;DHT22;7517;48.400;11.770;2022-10-16T09:07:22;21.40;78.30
14850;DHT22;7517;48.400;11.770;2022-10-16T09:10:09;21.50;77.30
14850;DHT22;7517;48.400;11.770;2022-10-16T09:12:53;21.60;76.40
14850;DHT22;7517;48.400;11.770;2022-10-16T09:15:30;21.70;75.80
14850;DHT22;7517;48.400;11.770;2022-10-16T09:18:06;21.90;75.60
14850;DHT22;7517;48.400;11.770;2022-10-16T09:20:48;22.00;76.60
14850;DHT22;7517;48.400;11.770;2022-10-16T09:23:19;22.10;76.00
14850;DHT22;7517;48.400;11.770;2022-10-16T09:25:54;22.20;76.60
14850;DHT22;7517;48.400;11.770;2022-10-16T09:28:24;22.40;76.10
14850;DHT22;7517;48.400;11.770;2022-10-16T09:30:52;22.50;75.90
14850;DHT22;7517;48.400;11.770;2022-10-16T09:33:23;22.70;76.60
14850;DHT22;7517;48.400;11.770;2022-10-16T09:35:55;22.80;76.50
14850;DHT22;7517;48.400;11.770;2022-10-16T09:38:28;23.00;76.10
14850;DHT22;7517;48.400;11.770;2022-10-16T09:40:58;23.10;75.10
14850;DHT22;7517;48.400;11.770;2022-10-16T09:43:33;23.30;74.40
14850;DHT22;7517;48.400;11.770;2022-10-16T09:46:06;23.50;74.30
14850;DHT22;7517;48.400;11.770;2022-10-16T09:48:37;23.70;75.20
14850;DHT22;7517;48.400;11.770;2022-10-16T09:51:23;23.80;75.10
14850;DHT22;7517;48.400;11.770;2022-10-16T09:53:56;24.00;75.00
14850;DHT22;7517;48.400;11.770;2022-10-16T09:56:28;24.10;74.90
14850;DHT22;7517;48.400;11.770;2022-10-16T09:59:01;24.30;75.00
14850;DHT22;7517;48.400;11.770;2022-10-16T10:01:37;24.40;74.60
14850;DHT22;7517;48.400;11.770;2022-10-16T10:04:08;24.60;73.20
14850;DHT22;7517;48.400;11.770;2022-10-16T10:06:40;24.80;73.80
14850;DHT22;7517;48.400;11.770;2022-10-16T10:09:19;25.00;73.60
14850;DHT22;7517;48.400;11.770;2022-10-16T10:11:54;25.20;72.70
14850;DHT22;7517;48.400;11.770;2022-10-16T10:14:31;25.30;72.70
14850;DHT22;7517;48.400;11.770;2022-10-16T10:17:14;25.40;72.10
14850;DHT22;7517;48.400;11.770;2022-10-16T10:19:47;25.60;72.00
14850;DHT22;7517;48.400;11.770;2022-10-16T10:22:25;25.80;72.30
14850;DHT22;7517;48.400;11.770;2022-10-16T10:24:56;25.90;69.10
14850;DHT22;7517;48.400;11.770;2022-10-16T10:27:52;26.00;70.70
14850;DHT22;7517;48.400;11.770;2022-10-16T10:30:44;26.20;71.00
14850;DHT22;7517;48.400;11.770;2022-10-16T10:33:27;26.30;67.90
14850;DHT22;7517;48.400;11.770;2022-10-16T10:36:07;26.30;66.80
14850;DHT22;7517;48.400;11.770;2022-10-16T10:38:49;26.40;65.30
14850;DHT22;7517;48.400;11.770;2022-10-16T10:41:53;26.40;65.30
14850;DHT22;7517;48.400;11.770;2022-10-16T10:44:48;26.40;66.30
14850;DHT22;7517;48.400;11.770;2022-10-16T10:47:31;26.40;65.30
14850;DHT22;7517;48.400;11.770;2022-10-16T10:50:13;26.30;64.80
14850;DHT22;7517;48.400;11.770;2022-10-16T10:52:56;26.20;65.50
14850;DHT22;7517;48.400;11.770;2022-10-16T10:55:39;26.20;66.20
14850;DHT22;7517;48.400;11.770;2022-10-16T10:58:40;26.10;64.80
14850;DHT22;7517;48.400;11.770;2022-10-16T11:01:24;26.10;63.80
14850;DHT22;7517;48.400;11.770;2022-10-16T11:04:16;26.00;64.00
14850;DHT22;7517;48.400;11.770;2022-10-16T11:07:11;25.90;64.40
14850;DHT22;7517;48.400;11.770;2022-10-16T11:09:47;25.90;65.00
14850;DHT22;7517;48.400;11.770;2022-10-16T11:12:18;25.80;65.10
14850;DHT22;7517;48.400;11.770;2022-10-16T11:14:54;25.80;65.60
14850;DHT22;7517;48.400;11.770;2022-10-16T11:17:27;25.80;64.70
14850;DHT22;7517;48.400;11.770;2022-10-16T11:20:05;25.70;64.60
14850;DHT22;7517;48.400;11.770;2022-10-16T11:22:43;25.70;65.60
14850;DHT22;7517;48.400;11.770;2022-10-16T11:25:19;25.70;65.10
14850;DHT22;7517;48.400;11.770;2022-10-16T11:27:51;25.70;65.20
14850;DHT22;7517;48.400;11.770;2022-10-16T11:30:26;25.70;65.80
14850;DHT22;7517;48.400;11.770;2022-10-16T11:33:08;25.70;64.80
14850;DHT22;7517;48.400;11.770;2022-10-16T11:35:51;25.70;63.20
14850;DHT22;7517;48.400;11.770;2022-10-16T11:38:27;25.70;64.20
14850;DHT22;7517;48.400;11.770;2022-10-16T11:41:02;25.70;65.00
14850;DHT22;7517;48.400;11.770;2022-10-16T11:43:39;25.70;64.20
14850;DHT22;7517;48.400;11.770;2022-10-16T11:46:13;25.70;64.10
14850;DHT22;7517;48.400;11.770;2022-10-16T11:48:49;25.70;63.30
14850;DHT22;7517;48.400;11.770;2022-10-16T11:51:29;25.70;64.00
14850;DHT22;7517;48.400;11.770;2022-10-16T11:54:08;25.70;62.50
14850;DHT22;7517;48.400;11.770;2022-10-16T11:56:48;25.70;63.40
14850;DHT22;7517;48.400;11.770;2022-10-16T11:59:23;25.70;63.00
14850;DHT22;7517;48.400;11.770;2022-10-16T12:02:26;25.80;62.70
14850;DHT22;7517;48.400;11.770;2022-10-16T12:05:11;25.80;60.80
14850;DHT22;7517;48.400;11.770;2022-10-16T12:07:53;25.80;61.00
14850;DHT22;7517;48.400;11.770;2022-10-16T12:10:29;25.80;62.40
14850;DHT22;7517;48.400;11.770;2022-10-16T12:13:02;25.80;62.30
14850;DHT22;7517;48.400;11.770;2022-10-16T12:15:32;25.80;62.20
14850;DHT22;7517;48.400;11.770;2022-10-16T12:18:00;25.80;61.30
14850;DHT22;7517;48.400;11.770;2022-10-16T12:20:29;25.80;61.70
14850;DHT22;7517;48.400;11.770;2022-10-16T12:23:01;25.80;61.10
14850;DHT22;7517;48.400;11.770;2022-10-16T12:25:32;25.80;60.40
14850;DHT22;7517;48.400;11.770;2022-10-16T12:28:03;25.90;60.90
14850;DHT22;7517;48.400;11.770;2022-10-16T12:30:35;25.90;61.10
14850;DHT22;7517;48.400;11.770;2022-10-16T12:33:04;25.90;59.80
14850;DHT22;7517;48.400;11.770;2022-10-16T12:35:44;26.00;59.80
14850;DHT22;7517;48.400;11.770;2022-10-16T12:38:18;26.00;59.90
14850;DHT22;7517;48.400;11.770;2022-10-16T12:40:56;26.00;60.00
14850;DHT22;7517;48.400;11.770;2022-10-16T12:43:34;26.10;59.80
14850;DHT22;7517;48.400;11.770;2022-10-16T12:46:19;26.10;59.70
14850;DHT22;7517;48.400;11.770;2022-10-16T12:48:49;26.10;59.40
14850;DHT22;7517;48.400;11.770;2022-10-16T12:51:24;26.20;59.80
14850;DHT22;7517;48.400;11.770;2022-10-16T12:54:02;26.20;59.40
14850;DHT22;7517;48.400;11.770;2022-10-16T12:56:40;26.30;59.40
14850;DHT22;7517;48.400;11.770;2022-10-16T12:59:21;26.30;58.60
14850;DHT22;7517;48.400;11.770;2022-10-16T13:02:11;26.40;58.40
14850;DHT22;7517;48.400;11.770;2022-10-16T13:05:26;26.40;57.80
14850;DHT22;7517;48.400;11.770;2022-10-16T13:08:16;26.50;58.00
14850;DHT22;7517;48.400;11.770;2022-10-16T13:11:08;26.50;57.70
14850;DHT22;7517;48.400;11.770;2022-10-16T13:14:02;26.50;57.10
14850;DHT22;7517;48.400;11.770;2022-10-16T13:16:50;26.50;56.50
14850;DHT22;7517;48.400;11.770;2022-10-16T13:19:33;26.50;56.90
14850;DHT22;7517;48.400;11.770;2022-10-16T13:22:13;26.50;57.80
14850;DHT22;7517;48.400;11.770;2022-10-16T13:25:08;26.50;56.90
14850;DHT22;7517;48.400;11.770;2022-10-16T13:27:52;26.50;56.10
14850;DHT22;7517;48.400;11.770;2022-10-16T13:30:24;26.50;56.70
14850;DHT22;7517;48.400;11.770;2022-10-16T13:33:00;26.50;57.00
14850;DHT22;7517;48.400;11.770;2022-10-16T13:35:32;26.50;56.20
14850;DHT22;7517;48.400;11.770;2022-10-16T13:38:11;26.50;56.60
14850;DHT22;7517;48.400;11.770;2022-10-16T13:40:51;26.50;56.60
14850;DHT22;7517;48.400;11.770;2022-10-16T13:43:26;26.50;56.00
14850;DHT22;7517;48.400;11.770;2022-10-16T13:45:57;26.50;56.10
14850;DHT22;7517;48.400;11.770;2022-10-16T13:48:25;26.50;56.10
14850;DHT22;7517;48.400;11.770;2022-10-16T13:51:04;26.50;56.10
14850;DHT22;7517;48.400;11.770;2022-10-16T13:53:33;26.50;55.50
14850;DHT22;7517;48.400;11.770;2022-10-16T13:56:03;26.50;56.10
14850;DHT22;7517;48.400;11.770;2022-10-16T13:58:34;26.50;55.90
14850;DHT22;7517;48.400;11.770;2022-10-16T14:01:02;26.50;56.00
14850;DHT22;7517;48.400;11.770;2022-10-16T14:03:33;26.50;55.50
14850;DHT22;7517;48.400;11.770;2022-10-16T14:06:03;26.50;55.60
14850;DHT22;7517;48.400;11.770;2022-10-16T14:08:34;26.50;55.20
14850;DHT22;7517;48.400;11.770;2022-10-16T14:11:02;26.50;55.20
14850;DHT22;7517;48.400;11.770;2022-10-16T14:13:31;26.50;55.30
14850;DHT22;7517;48.400;11.770;2022-10-16T14:16:07;26.50;54.80
14850;DHT22;7517;48.400;11.770;2022-10-16T14:18:38;26.50;55.10
14850;DHT22;7517;48.400;11.770;2022-10-16T14:21:11;26.50;54.90
14850;DHT22;7517;48.400;11.770;2022-10-16T14:23:41;26.50;54.80
14850;DHT22;7517;48.400;11.770;2022-10-16T14:26:14;26.50;55.20
14850;DHT22;7517;48.400;11.770;2022-10-16T14:28:45;26.50;54.80
14850;DHT22;7517;48.400;11.770;2022-10-16T14:31:29;26.50;54.90
14850;DHT22;7517;48.400;11.770;2022-10-16T14:33:58;26.50;54.60
14850;DHT22;7517;48.400;11.770;2022-10-16T14:36:27;26.40;55.30
14850;DHT22;7517;48.400;11.770;2022-10-16T14:39:01;26.40;55.70
14850;DHT22;7517;48.400;11.770;2022-10-16T14:41:32;26.40;55.40
14850;DHT22;7517;48.400;11.770;2022-10-16T14:44:10;26.40;55.80
14850;DHT22;7517;48.400;11.770;2022-10-16T14:46:41;26.40;55.30
14850;DHT22;7517;48.400;11.770;2022-10-16T14:49:15;26.40;55.40
14850;DHT22;7517;48.400;11.770;2022-10-16T14:51:46;26.30;55.70
14850;DHT22;7517;48.400;11.770;2022-10-16T14:54:15;26.30;56.00
14850;DHT22;7517;48.400;11.770;2022-10-16T14:56:47;26.30;55.80
14850;DHT22;7517;48.400;11.770;2022-10-16T14:59:27;26.30;55.60
14850;DHT22;7517;48.400;11.770;2022-10-16T15:01:59;26.30;55.30
14850;DHT22;7517;48.400;11.770;2022-10-16T15:04:44;26.30;55.90
14850;DHT22;7517;48.400;11.770;2022-10-16T15:07:14;26.20;56.60
14850;DHT22;7517;48.400;11.770;2022-10-16T15:09:45;26.20;57.20
14850;DHT22;7517;48.400;11.770;2022-10-16T15:12:14;26.20;57.70
14850;DHT22;7517;48.400;11.770;2022-10-16T15:14:46;26.10;57.90
14850;DHT22;7517;48.400;11.770;2022-10-16T15:17:13;26.00;58.30
14850;DHT22;7517;48.400;11.770;2022-10-16T15:19:43;26.00;58.50
14850;DHT22;7517;48.400;11.770;2022-10-16T15:22:11;25.90;58.80
14850;DHT22;7517;48.400;11.770;2022-10-16T15:24:43;25.90;59.70
14850;DHT22;7517;48.400;11.770;2022-10-16T15:27:10;25.80;59.50
14850;DHT22;7517;48.400;11.770;2022-10-16T15:29:44;25.70;59.80
14850;DHT22;7517;48.400;11.770;2022-10-16T15:32:14;25.60;59.10
14850;DHT22;7517;48.400;11.770;2022-10-16T15:34:53;25.60;59.30
14850;DHT22;7517;48.400;11.770;2022-10-16T15:37:25;25.50;59.70
14850;DHT22;7517;48.400;11.770;2022-10-16T15:39:53;25.40;60.00
14850;DHT22;7517;48.400;11.770;2022-10-16T15:42:31;25.40;60.30
14850;DHT22;7517;48.400;11.770;2022-10-16T15:44:59;25.30;60.70
14850;DHT22;7517;48.400;11.770;2022-10-16T15:47:27;25.20;61.30
14850;DHT22;7517;48.400;11.770;2022-10-16T15:49:54;25.10;61.50
14850;DHT22;7517;48.400;11.770;2022-10-16T15:52:24;25.10;61.90
14850;DHT22;7517;48.400;11.770;2022-10-16T15:54:52;25.00;61.60
14850;DHT22;7517;48.400;11.770;2022-10-16T15:57:19;24.90;61.10
14850;DHT22;7517;48.400;11.770;2022-10-16T15:59:49;24.90;61.10
14850;DHT22;7517;48.400;11.770;2022-10-16T16:02:18;24.80;61.00
14850;DHT22;7517;48.400;11.770;2022-10-16T16:04:45;24.70;61.30
14850;DHT22;7517;48.400;11.770;2022-10-16T16:07:12;24.70;61.50
14850;DHT22;7517;48.400;11.770;2022-10-16T16:09:39;24.60;61.80
14850;DHT22;7517;48.400;11.770;2022-10-16T16:12:08;24.50;62.00